Welcome to BabcockFarms new weather site...

Visit our other weather sites:

Template documentation
and downloads

And another site



There are no active watches, warnings or advisories

Nearby METAR Reports

   
KAVP - Albrightsville, PA
Updated: Feb 25 2018 1:28 am
Light Rain, Overcast  
Light Rain, Overcast  
   Wind: varies 4.6 mph
Wind: varies 4.6 mph
Temperature: 42.8°F
Wind Chill: 39.2°F
Dew Point: 39.2°F
Humidity: 87%
Barometer: 30.07 inHg
Clouds: Overcast
Visibility: 10 mi
Cloud details: Mostly Cloudy 457 m,
Overcast 1006 m
KAVP 250728Z VRB04KT 10SM -RA BKN015 OVC033 06/04 A3007 RMK AO2 P0001 T00560039
KIWA - Apache Junction, AZ
Updated: Feb 25 2018 1:35 am
Clear  
Clear  
   Wind: ESE 6.9 mph
Wind: ESE 6.9 mph
Temperature: 39.2°F
Wind Chill: 33.8°F
Dew Point: 17.6°F
Humidity: 42%
Barometer: 30.13 inHg
Clouds: Clear
Visibility: 10 mi
Cloud details: Clear
KIWA 250735Z AUTO 12006KT 10SM CLR 04/M08 A3013 RMK AO2 T00361081
KPKB - Blue Rock, OH
Updated: Feb 25 2018 12:53 am
Overcast  
Overcast  
   Wind: South 6.9 mph
Wind: South 6.9 mph
Temperature: 60.8°F
Dew Point: 57.2°F
Humidity: 88%
Barometer: 29.8 inHg
Clouds: Overcast
Visibility: 10 mi
Cloud details: Partly Cloudy 1829 m,
Partly Cloudy 2438 m,
Overcast 3048 m
KPKB 250653Z AUTO 17006KT 10SM SCT060 SCT080 OVC100 16/14 A2980 RMK AO2 RAE53 SLP090 P0002 T01560139
KHVN - Branford, CT
Updated: Feb 25 2018 1:32 am
Overcast  
Overcast  
   Wind: East 5.8 mph
Wind: East 5.8 mph
Temperature: 44.6°F
Wind Chill: 41°F
Dew Point: 39.2°F
Humidity: 81%
Barometer: 30.2 inHg
Clouds: Overcast
Visibility: 10 mi
Cloud details: Mostly Cloudy 488 m,
Overcast 640 m
KHVN 250732Z AUTO 09005KT 10SM BKN016 OVC021 07/04 A3020 RMK AO2 T00720039
KPHX - Carefree, AZ
Updated: Feb 25 2018 12:51 am
Clear  
Clear  
   Wind: East 4.6 mph
Wind: East 4.6 mph
Temperature: 48.2°F
Wind Chill: 46.4°F
Dew Point: 19.4°F
Humidity: 32%
Barometer: 30.1 inHg
Clouds: Clear
Visibility: 10 mi
Cloud details: Clear
KPHX 250651Z 08004KT 10SM CLR 09/M07 A3010 RMK AO2 SLP189 T00891072 401560039 $
 

Script developed by  Saratoga-weather.org Adapted for the template by  Weerstation Leuven